Time;durP1;ratioP1;P1;durP2;ratioP2;P2;SDS_P1;SDS_P2;PMS_P1;PMS_P2;Temp;Humidity;BMP_temperature;BMP_pressure;BME280_temperature;BME280_humidity;BME280_pressure;Samples;Min_cycle;Max_cycle;Signal;HPM_P1;HPM_P2
2023/04/11 00:00:52;;;;;;;34.43;30.87;;;;;;;11.63;48.97;101058.84;5048396;28;20379;-76
2023/04/11 00:03:18;;;;;;;32.05;28.85;;;;;;;11.70;48.74;101053.66;5045009;28;20397;-77
2023/04/11 00:05:45;;;;;;;31.33;28.53;;;;;;;11.64;48.80;101060.47;5037349;28;20398;-77
2023/04/11 00:08:10;;;;;;;29.40;26.80;;;;;;;11.58;49.06;101060.34;5047214;28;20440;-77
2023/04/11 00:10:36;;;;;;;26.02;23.83;;;;;;;11.55;49.16;101063.31;5044411;28;20878;-77
2023/04/11 00:13:02;;;;;;;25.80;23.70;;;;;;;11.51;49.05;101062.00;5033982;28;20472;-77
2023/04/11 00:15:27;;;;;;;27.03;24.73;;;;;;;11.77;48.50;101043.19;5045812;28;20388;-77
2023/04/11 00:17:53;;;;;;;27.95;25.75;;;;;;;11.96;47.91;101052.66;5036228;28;20751;-77
2023/04/11 00:20:20;;;;;;;27.40;25.05;;;;;;;12.07;47.82;101056.78;5035778;28;20722;-77
2023/04/11 00:22:45;;;;;;;29.45;26.58;;;;;;;11.83;48.19;101051.31;5033376;28;20390;-77
2023/04/11 00:25:11;;;;;;;29.95;27.25;;;;;;;11.98;48.11;101043.50;5034249;28;20394;-77
2023/04/11 00:27:36;;;;;;;25.92;23.83;;;;;;;12.06;48.16;101039.97;5047672;28;20411;-76
2023/04/11 00:30:03;;;;;;;27.73;25.23;;;;;;;11.91;48.86;101039.88;5049549;28;20414;-77
2023/04/11 00:32:29;;;;;;;24.95;23.02;;;;;;;11.80;49.04;101037.56;5033261;28;20398;-77
2023/04/11 00:34:54;;;;;;;24.90;22.95;;;;;;;11.81;49.03;101040.03;5041735;28;20879;-76
2023/04/11 00:37:23;;;;;;;24.10;22.07;;;;;;;11.73;49.29;101044.53;5040420;28;20851;-76
2023/04/11 00:39:51;;;;;;;19.30;17.70;;;;;;;11.55;49.65;101039.44;5034352;28;20397;-76
2023/04/11 00:42:18;;;;;;;16.83;15.40;;;;;;;11.60;49.42;101043.22;5041077;28;20396;-77
2023/04/11 00:44:44;;;;;;;10.65;9.50;;;;;;;11.44;49.75;101045.91;5052181;28;20749;-77
2023/04/11 00:47:10;;;;;;;10.85;8.30;;;;;;;11.44;49.80;101041.41;5043297;28;20403;-77
2023/04/11 00:49:36;;;;;;;12.30;8.10;;;;;;;11.51;49.59;101041.59;5033425;28;20405;-77
2023/04/11 00:52:03;;;;;;;10.18;7.32;;;;;;;11.47;49.70;101042.94;5049182;28;20403;-77
2023/04/11 00:54:30;;;;;;;10.02;7.00;;;;;;;11.44;49.76;101045.91;5046645;28;20897;-76
2023/04/11 00:57:00;;;;;;;11.50;7.78;;;;;;;11.38;49.72;101039.44;5045622;28;20718;-77
2023/04/11 00:59:31;;;;;;;11.18;7.53;;;;;;;11.40;49.78;101047.25;5038927;28;20382;-77
2023/04/11 01:01:57;;;;;;;11.02;7.28;;;;;;;11.27;49.90;101034.47;5032415;28;20448;-76
2023/04/11 01:04:23;;;;;;;10.40;8.00;;;;;;;11.31;49.81;101042.91;5045611;28;20429;-76
2023/04/11 01:06:53;;;;;;;10.13;7.50;;;;;;;11.34;49.43;101048.72;5039748;28;20450;-76
2023/04/11 01:09:24;;;;;;;8.73;7.38;;;;;;;11.34;49.66;101045.25;5043701;28;20421;-76
2023/04/11 01:11:50;;;;;;;10.65;8.30;;;;;;;11.40;49.45;101047.25;5042282;28;20387;-76
2023/04/11 01:14:18;;;;;;;10.15;8.18;;;;;;;11.24;49.56;101035.63;5033106;28;20388;-76
2023/04/11 01:16:49;;;;;;;12.27;7.80;;;;;;;11.36;49.57;101040.59;5046171;28;20385;-76
2023/04/11 01:19:18;;;;;;;9.63;7.28;;;;;;;11.28;49.68;101038.78;5032170;28;20448;-76
2023/04/11 01:21:46;;;;;;;9.88;7.80;;;;;;;11.21;49.56;101035.94;5031948;28;20401;-76
2023/04/11 01:24:12;;;;;;;9.35;7.90;;;;;;;11.39;49.36;101045.56;5032158;28;20410;-76
2023/04/11 01:26:37;;;;;;;9.80;7.87;;;;;;;11.36;49.19;101041.44;5031255;28;20409;-76
2023/04/11 01:29:03;;;;;;;10.40;7.85;;;;;;;11.33;49.36;101043.59;5031536;28;20449;-76
2023/04/11 01:31:30;;;;;;;11.65;8.20;;;;;;;11.24;49.31;101045.44;5030901;28;20813;-76
2023/04/11 01:33:56;;;;;;;10.18;7.90;;;;;;;11.20;49.56;101042.28;5045854;28;20376;-77
2023/04/11 01:36:22;;;;;;;10.10;7.47;;;;;;;11.16;49.54;101050.72;5050590;28;20733;-77
2023/04/11 01:38:48;;;;;;;10.90;7.97;;;;;;;11.16;49.69;101040.09;5051288;28;20446;-77
2023/04/11 01:41:16;;;;;;;9.45;7.90;;;;;;;11.21;49.50;101045.75;5052368;28;20381;-76
2023/04/11 01:43:43;;;;;;;11.18;8.30;;;;;;;11.23;49.54;101052.53;5051751;28;21050;-77
2023/04/11 01:46:10;;;;;;;10.85;8.88;;;;;;;11.22;49.55;101044.75;5051728;28;20377;-76
2023/04/11 01:48:36;;;;;;;14.15;8.20;;;;;;;11.02;49.83;101029.16;5050532;28;20503;-76
2023/04/11 01:51:02;;;;;;;10.40;7.55;;;;;;;10.96;50.36;101027.16;5051498;28;20385;-76
2023/04/11 01:53:28;;;;;;;10.20;7.87;;;;;;;10.92;50.37;101039.09;5051481;28;20876;-76
2023/04/11 01:55:53;;;;;;;9.95;7.20;;;;;;;10.85;50.75;101038.09;5050832;28;20389;-76
2023/04/11 01:58:19;;;;;;;10.83;8.37;;;;;;;10.78;50.96;101037.09;5051451;28;20373;-76
2023/04/11 02:00:44;;;;;;;11.53;7.17;;;;;;;10.66;51.26;101036.56;5051338;28;20461;-76
2023/04/11 02:03:10;;;;;;;10.45;7.15;;;;;;;10.66;51.27;101034.75;5051625;28;20376;-77
2023/04/11 02:05:35;;;;;;;11.23;7.33;;;;;;;10.56;52.00;101035.88;5050206;28;20377;-77
2023/04/11 02:08:01;;;;;;;10.87;7.03;;;;;;;10.62;51.56;101032.56;5051628;28;20415;-77
2023/04/11 02:10:26;;;;;;;9.70;7.47;;;;;;;10.61;51.81;101028.28;5052089;28;20385;-77
2023/04/11 02:12:52;;;;;;;9.27;6.97;;;;;;;10.65;51.54;101034.91;5051961;28;20396;-77
2023/04/11 02:15:17;;;;;;;11.37;6.97;;;;;;;10.65;51.65;101021.66;5051651;28;20708;-77
2023/04/11 02:17:43;;;;;;;14.85;7.45;;;;;;;10.59;51.95;101028.44;5051307;28;20819;-76
2023/04/11 02:20:11;;;;;;;12.05;7.03;;;;;;;10.70;51.68;101029.97;5051564;28;20384;-76
2023/04/11 02:22:37;;;;;;;13.57;6.88;;;;;;;10.69;51.92;101028.28;5053396;28;20388;-76
2023/04/11 02:25:02;;;;;;;8.13;6.03;;;;;;;10.63;51.96;101035.06;5051783;28;20377;-76
2023/04/11 02:27:28;;;;;;;13.23;6.33;;;;;;;10.51;52.24;101029.25;5051573;28;20411;-77
2023/04/11 02:29:54;;;;;;;11.50;6.23;;;;;;;10.44;52.74;101027.41;5050342;28;20959;-77
2023/04/11 02:32:19;;;;;;;9.10;5.78;;;;;;;10.26;53.26;101038.91;5051202;28;20384;-75
2023/04/11 02:34:45;;;;;;;9.30;5.93;;;;;;;10.26;53.70;101038.06;5051652;28;21045;-76
2023/04/11 02:37:10;;;;;;;9.60;6.63;;;;;;;10.46;53.01;101033.38;5051915;28;20452;-76
2023/04/11 02:39:36;;;;;;;9.77;7.00;;;;;;;10.62;52.83;101037.88;5051609;28;20472;-76
2023/04/11 02:42:02;;;;;;;11.03;6.47;;;;;;;10.44;53.02;101036.19;5052181;28;20395;-76
2023/04/11 02:44:29;;;;;;;8.83;6.00;;;;;;;10.41;53.13;101035.69;5051620;28;20376;-77
2023/04/11 02:46:55;;;;;;;10.03;6.63;;;;;;;10.45;53.15;101042.31;5051320;28;21104;-76
2023/04/11 02:49:20;;;;;;;6.43;4.33;;;;;;;10.36;53.42;101038.81;5052012;28;20372;-77
2023/04/11 02:51:46;;;;;;;8.13;5.68;;;;;;;10.38;53.58;101036.00;5051254;28;20475;-76
2023/04/11 02:54:11;;;;;;;10.27;6.07;;;;;;;10.46;53.44;101038.66;5053821;28;20416;-76
2023/04/11 02:56:37;;;;;;;9.20;7.23;;;;;;;10.55;53.27;101032.38;5060082;28;20806;-76
2023/04/11 02:59:06;;;;;;;9.90;6.00;;;;;;;10.59;53.20;101031.09;5054892;28;20384;-76
2023/04/11 03:01:32;;;;;;;9.68;6.95;;;;;;;10.77;52.33;101032.75;5042654;28;20390;-77
2023/04/11 03:03:58;;;;;;;10.67;6.60;;;;;;;10.92;52.01;101033.78;5030875;28;20491;-77
2023/04/11 03:06:23;;;;;;;9.07;6.47;;;;;;;11.00;51.97;101044.44;5047731;28;20386;-76
2023/04/11 03:08:49;;;;;;;8.00;6.50;;;;;;;11.03;51.84;101035.28;5038793;28;20453;-76
2023/04/11 03:11:15;;;;;;;10.27;6.88;;;;;;;11.13;51.36;101041.28;5048880;28;20388;-77
2023/04/11 03:13:42;;;;;;;11.75;6.35;;;;;;;11.18;50.95;101036.31;5038143;28;20375;-77
2023/04/11 03:16:08;;;;;;;9.70;6.82;;;;;;;11.13;50.73;101043.06;5046529;28;20384;-77
2023/04/11 03:18:33;;;;;;;9.55;6.45;;;;;;;11.13;50.61;101046.59;5035375;28;20713;-77
2023/04/11 03:20:59;;;;;;;11.77;6.93;;;;;;;10.94;50.84;101039.75;5042485;28;20403;-77
2023/04/11 03:23:25;;;;;;;10.20;7.70;;;;;;;10.87;50.95;101041.41;5039552;28;20447;-77
2023/04/11 03:25:50;;;;;;;9.77;7.70;;;;;;;10.94;50.79;101047.72;5031320;28;20383;-77
2023/04/11 03:28:16;;;;;;;9.83;7.60;;;;;;;10.97;50.29;101055.34;5062696;28;20441;-77
2023/04/11 03:30:42;;;;;;;13.05;9.40;;;;;;;11.00;50.20;101055.03;5036167;28;20485;-77
2023/04/11 03:33:08;;;;;;;18.23;9.95;;;;;;;10.93;50.48;101054.03;5044723;28;20386;-77
2023/04/11 03:35:34;;;;;;;14.80;9.95;;;;;;;10.99;50.33;101053.38;5035276;28;20789;-78
2023/04/11 03:38:00;;;;;;;12.18;8.50;;;;;;;10.88;50.15;101045.72;5045789;28;20389;-77
2023/04/11 03:40:25;;;;;;;13.97;10.20;;;;;;;10.84;50.10;101053.19;5031803;28;20380;-77
2023/04/11 03:42:51;;;;;;;13.30;9.40;;;;;;;10.79;50.25;101057.31;5030827;28;20394;-77
2023/04/11 03:45:17;;;;;;;14.52;8.98;;;;;;;10.64;50.50;101051.81;5042112;28;20380;-77
2023/04/11 03:47:43;;;;;;;11.30;7.68;;;;;;;10.52;51.00;101060.06;5049613;28;20397;-77
2023/04/11 03:50:09;;;;;;;13.40;9.38;;;;;;;10.51;51.20;101052.25;5037837;28;20424;-77
2023/04/11 03:52:34;;;;;;;17.92;10.80;;;;;;;10.61;51.02;101052.16;5050749;28;20404;-77
2023/04/11 03:55:01;;;;;;;15.48;10.40;;;;;;;10.40;51.18;101041.97;5043285;28;20389;-77
2023/04/11 03:57:27;;;;;;;15.83;9.03;;;;;;;10.26;51.74;101052.16;5034114;28;20378;-77
2023/04/11 03:59:55;;;;;;;23.60;11.02;;;;;;;10.35;51.72;101052.22;5034229;28;20387;-76
2023/04/11 04:02:21;;;;;;;12.40;8.85;;;;;;;10.17;52.46;101050.44;5047658;28;20507;-77
2023/04/11 04:04:53;;;;;;;13.50;8.50;;;;;;;10.13;52.31;101054.41;5033749;28;20799;-76
2023/04/11 04:07:22;;;;;;;13.32;8.88;;;;;;;10.17;52.49;101053.09;5033665;28;20489;-76
2023/04/11 04:09:48;;;;;;;12.80;8.27;;;;;;;10.19;52.22;101048.50;5034108;28;20389;-76
2023/04/11 04:12:16;;;;;;;13.52;8.80;;;;;;;10.18;52.33;101052.13;5033239;28;20382;-77
2023/04/11 04:14:42;;;;;;;11.27;7.47;;;;;;;10.21;52.27;101043.88;5036500;28;20379;-77
2023/04/11 04:17:07;;;;;;;10.48;7.60;;;;;;;10.37;51.38;101056.38;5035101;28;20375;-77
2023/04/11 04:19:33;;;;;;;8.63;6.83;;;;;;;10.35;51.37;101047.72;5034368;28;20707;-77
2023/04/11 04:21:58;;;;;;;9.97;7.13;;;;;;;10.31;51.72;101051.72;5033966;28;20431;-76
2023/04/11 04:24:28;;;;;;;10.83;7.53;;;;;;;10.38;51.82;101050.06;5032841;28;20421;-76
2023/04/11 04:26:56;;;;;;;10.13;7.65;;;;;;;10.37;51.50;101047.59;5033565;28;20685;-77
2023/04/11 04:29:22;;;;;;;9.45;6.68;;;;;;;10.21;52.56;101043.00;5033548;28;20383;-77
2023/04/11 04:31:49;;;;;;;10.07;6.90;;;;;;;10.30;52.10;101050.03;5035060;28;20477;-77
2023/04/11 04:34:20;;;;;;;9.88;7.32;;;;;;;10.31;52.16;101041.94;5034990;28;20390;-77
2023/04/11 04:36:48;;;;;;;10.57;6.80;;;;;;;10.33;52.16;101039.97;5033805;28;20386;-77
2023/04/11 04:39:17;;;;;;;9.10;6.43;;;;;;;10.35;52.36;101041.63;5034127;28;20395;-77
2023/04/11 04:41:56;;;;;;;9.57;6.35;;;;;;;10.31;52.13;101033.16;5033820;28;20410;-77
2023/04/11 04:44:25;;;;;;;9.45;7.10;;;;;;;10.44;51.82;101030.91;5033096;28;20378;-77
2023/04/11 04:46:54;;;;;;;9.85;5.93;;;;;;;10.47;52.19;101038.50;5033716;28;20732;-77
2023/04/11 04:49:20;;;;;;;28.08;8.43;;;;;;;10.48;52.00;101024.28;5033486;28;20403;-76
2023/04/11 04:51:46;;;;;;;10.10;6.87;;;;;;;10.60;51.81;101022.13;5041104;28;20400;-75
2023/04/11 04:54:12;;;;;;;13.45;6.68;;;;;;;10.55;51.86;101021.78;5041586;28;20410;-76
2023/04/11 04:56:38;;;;;;;12.57;6.67;;;;;;;10.58;51.92;101020.66;5042305;28;20787;-76
2023/04/11 04:59:03;;;;;;;11.57;7.17;;;;;;;10.71;51.33;101021.00;5042489;28;20442;-76
2023/04/11 05:01:31;;;;;;;11.05;7.00;;;;;;;10.77;51.52;101016.84;5042844;28;20401;-76
2023/04/11 05:03:57;;;;;;;11.80;7.75;;;;;;;10.88;51.51;101017.38;5024804;28;20402;-77
2023/04/11 05:06:28;;;;;;;10.93;8.32;;;;;;;11.01;51.25;101008.94;5040784;28;20419;-77
2023/04/11 05:08:58;;;;;;;11.88;8.07;;;;;;;11.16;51.24;101009.09;5043892;28;20408;-75
2023/04/11 05:11:24;;;;;;;9.95;6.72;;;;;;;11.15;51.05;101002.13;5042077;28;20481;-77
2023/04/11 05:13:50;;;;;;;11.85;6.70;;;;;;;11.27;50.79;101007.91;5057691;28;20392;-77
2023/04/11 05:16:16;;;;;;;10.00;6.40;;;;;;;11.34;50.57;100995.63;5045254;28;20387;-77
2023/04/11 05:18:43;;;;;;;9.27;6.17;;;;;;;11.49;50.51;101014.38;5042557;28;20392;-77
2023/04/11 05:21:09;;;;;;;12.13;6.47;;;;;;;11.61;50.36;101006.88;5044378;28;20390;-76
2023/04/11 05:23:34;;;;;;;10.07;6.77;;;;;;;11.74;50.10;101001.03;5041316;28;20396;-76
2023/04/11 05:26:00;;;;;;;8.03;6.20;;;;;;;11.78;50.10;100999.72;5038965;28;20448;-77
2023/04/11 05:28:25;;;;;;;13.60;6.90;;;;;;;11.89;49.78;100998.50;5041186;28;20417;-77
2023/04/11 05:30:51;;;;;;;14.38;7.03;;;;;;;11.99;49.53;100997.34;5041251;28;20402;-77
2023/04/11 05:33:16;;;;;;;12.00;6.60;;;;;;;11.95;49.67;101003.16;5042116;28;20396;-77
2023/04/11 05:35:42;;;;;;;11.07;6.75;;;;;;;11.94;49.55;100994.38;5039612;28;20417;-77
2023/04/11 05:38:08;;;;;;;7.78;6.40;;;;;;;12.10;49.32;100989.97;5037504;28;20425;-77
2023/04/11 05:40:35;;;;;;;8.05;6.30;;;;;;;12.37;49.13;100999.31;5035808;28;20421;-77
2023/04/11 05:43:01;;;;;;;8.13;6.40;;;;;;;12.30;49.07;100993.03;5040332;28;20408;-76
2023/04/11 05:45:26;;;;;;;8.70;6.43;;;;;;;12.30;48.93;100990.38;5038499;28;20739;-76
2023/04/11 05:47:52;;;;;;;12.30;6.70;;;;;;;12.41;48.94;100982.03;5045676;28;20417;-77
2023/04/11 05:50:17;;;;;;;9.55;6.53;;;;;;;12.50;48.84;100988.94;5040084;28;20875;-77
2023/04/11 05:52:43;;;;;;;8.30;6.87;;;;;;;12.71;48.37;100992.78;5036195;28;20462;-77
2023/04/11 05:55:08;;;;;;;10.18;7.07;;;;;;;12.79;48.27;100990.91;5047228;28;20389;-75
2023/04/11 05:57:34;;;;;;;7.82;6.10;;;;;;;12.60;48.09;100994.88;5038254;28;20459;-76
2023/04/11 06:00:12;;;;;;;7.55;6.30;;;;;;;12.50;48.71;100994.25;5030641;28;20409;-76
2023/04/11 06:02:38;;;;;;;8.75;6.13;;;;;;;12.69;48.43;100984.97;5030692;28;20386;-76
2023/04/11 06:05:04;;;;;;;6.32;5.28;;;;;;;12.65;48.42;100988.19;5031312;28;20472;-77
2023/04/11 06:07:31;;;;;;;8.40;5.72;;;;;;;12.59;48.73;100989.72;5039204;28;21153;-76
2023/04/11 06:09:57;;;;;;;10.90;6.20;;;;;;;12.73;48.33;100977.47;5034448;28;20402;-78
2023/04/11 06:12:22;;;;;;;7.28;5.85;;;;;;;12.80;48.24;100976.59;5036710;28;20762;-76
2023/04/11 06:14:48;;;;;;;10.53;6.20;;;;;;;12.99;47.70;100969.94;5040467;28;20404;-76
2023/04/11 06:17:14;;;;;;;8.82;5.28;;;;;;;12.95;47.57;100965.19;5049712;28;20388;-77
2023/04/11 06:19:40;;;;;;;6.37;4.30;;;;;;;12.72;47.51;100966.00;5051085;28;20858;-78
2023/04/11 06:22:05;;;;;;;7.43;6.07;;;;;;;12.97;47.31;100976.47;5047748;28;20387;-76
2023/04/11 06:24:39;;;;;;;9.90;5.60;;;;;;;12.92;46.92;100965.53;5057099;28;20393;-77
2023/04/11 06:27:05;;;;;;;7.30;5.60;;;;;;;13.01;47.03;100964.44;5049094;28;20401;-77
2023/04/11 06:29:31;;;;;;;7.57;4.68;;;;;;;13.21;46.59;100962.09;5044691;28;20465;-76
2023/04/11 06:31:57;;;;;;;8.47;5.50;;;;;;;13.21;46.54;100954.13;5046298;28;20479;-76
2023/04/11 06:34:23;;;;;;;6.93;5.43;;;;;;;13.56;46.56;100954.47;5036887;28;20399;-76
2023/04/11 06:36:49;;;;;;;7.20;4.80;;;;;;;13.52;45.65;100945.16;5036169;28;20385;-77
2023/04/11 06:39:18;;;;;;;7.83;5.10;;;;;;;13.56;45.62;100946.47;5045993;28;20386;-77
2023/04/11 06:41:45;;;;;;;8.48;5.50;;;;;;;13.78;45.47;100952.69;5043021;28;20386;-76
2023/04/11 06:44:10;;;;;;;11.40;6.28;;;;;;;13.79;45.90;100948.19;5043166;28;20386;-77
2023/04/11 06:46:36;;;;;;;6.72;5.10;;;;;;;13.84;45.59;100935.16;5040392;28;20778;-77
2023/04/11 06:49:02;;;;;;;9.70;5.83;;;;;;;13.75;45.49;100931.75;5042584;28;20476;-76
2023/04/11 06:51:28;;;;;;;8.75;5.03;;;;;;;13.75;45.22;100935.22;5033150;28;20467;-78
2023/04/11 06:53:53;;;;;;;7.30;5.13;;;;;;;13.63;45.38;100934.06;5031161;28;20425;-78
2023/04/11 06:56:19;;;;;;;8.50;4.93;;;;;;;13.66;45.14;100935.53;5032614;28;20390;-78
2023/04/11 06:58:45;;;;;;;9.65;6.32;;;;;;;13.86;45.12;100925.13;5038622;28;20476;-77
2023/04/11 07:01:11;;;;;;;6.77;4.47;;;;;;;13.86;44.39;100925.94;5049891;28;20867;-77
2023/04/11 07:03:36;;;;;;;11.20;6.75;;;;;;;13.91;44.67;100936.06;5040029;28;20426;-77
2023/04/11 07:06:02;;;;;;;10.97;6.73;;;;;;;14.20;44.28;100929.00;5032047;28;20433;-78
2023/04/11 07:08:27;;;;;;;11.40;6.33;;;;;;;14.29;44.04;100925.19;5046784;28;20400;-76
2023/04/11 07:10:53;;;;;;;10.98;5.53;;;;;;;14.48;43.99;100918.44;5046074;28;20421;-76
2023/04/11 07:13:20;;;;;;;10.60;5.00;;;;;;;14.42;43.88;100919.16;5043324;28;20553;-78
2023/04/11 07:15:45;;;;;;;12.45;5.95;;;;;;;14.53;43.57;100913.31;5038797;28;20803;-77
2023/04/11 07:18:13;;;;;;;8.15;4.43;;;;;;;14.64;43.26;100917.34;5045173;28;20837;-78
2023/04/11 07:20:38;;;;;;;11.38;5.18;;;;;;;14.68;43.00;100903.44;5034527;28;20389;-78
2023/04/11 07:23:03;;;;;;;8.03;4.03;;;;;;;14.59;42.13;100911.78;5044548;28;20395;-77
2023/04/11 07:25:29;;;;;;;14.17;5.23;;;;;;;14.38;42.52;100910.72;5039628;28;20385;-78
2023/04/11 07:27:55;;;;;;;13.50;5.53;;;;;;;14.51;42.84;100902.88;5048668;28;20893;-77
2023/04/11 07:30:21;;;;;;;9.85;4.80;;;;;;;14.62;42.13;100898.88;5034225;28;20398;-76
2023/04/11 07:32:47;;;;;;;10.18;4.32;;;;;;;14.51;41.42;100900.19;5051036;28;20396;-75
2023/04/11 07:35:12;;;;;;;5.50;4.10;;;;;;;14.58;41.44;100896.78;5047262;28;20493;-77
2023/04/11 07:37:38;;;;;;;5.43;3.60;;;;;;;14.53;41.15;100897.31;5044764;28;20765;-76
2023/04/11 07:40:08;;;;;;;5.07;3.90;;;;;;;14.85;40.48;100887.97;5039982;28;20393;-77
2023/04/11 07:42:34;;;;;;;5.03;3.63;;;;;;;14.90;40.42;100879.38;5035912;28;20429;-76
2023/04/11 07:44:59;;;;;;;6.00;3.90;;;;;;;14.84;39.98;100877.50;5050124;28;20410;-77
2023/04/11 07:47:25;;;;;;;5.60;3.57;;;;;;;14.78;40.18;100878.28;5034911;28;20406;-77
2023/04/11 07:49:50;;;;;;;6.07;3.72;;;;;;;14.90;39.86;100871.38;5035425;28;20417;-77
2023/04/11 07:52:16;;;;;;;3.80;2.93;;;;;;;14.86;39.85;100884.28;5049892;28;20446;-78
2023/04/11 07:54:41;;;;;;;4.82;3.70;;;;;;;15.31;39.92;100875.97;5037760;28;20400;-77
2023/04/11 07:57:06;;;;;;;4.13;3.37;;;;;;;15.22;39.57;100875.28;5053485;28;20381;-77
2023/04/11 07:59:32;;;;;;;6.30;3.20;;;;;;;15.18;39.31;100871.38;5054364;28;20887;-76
2023/04/11 08:01:59;;;;;;;5.83;3.83;;;;;;;15.31;39.42;100870.63;5045403;28;20394;-76
2023/04/11 08:04:25;;;;;;;6.47;3.40;;;;;;;15.43;38.29;100844.16;5052074;28;20415;-76
2023/04/11 08:06:51;;;;;;;4.33;3.60;;;;;;;15.57;38.94;100866.41;5049499;28;21419;-77
2023/04/11 08:09:16;;;;;;;5.80;3.13;;;;;;;15.56;38.75;100856.78;5034493;28;20420;-77
2023/04/11 08:11:42;;;;;;;6.93;3.97;;;;;;;15.67;38.90;100864.19;5034718;28;20406;-77
2023/04/11 08:14:08;;;;;;;5.40;3.20;;;;;;;15.53;38.80;100857.16;5050804;28;20810;-77
2023/04/11 08:16:34;;;;;;;4.85;3.00;;;;;;;15.22;39.14;100856.59;5056907;28;20399;-77
2023/04/11 08:19:00;;;;;;;11.00;4.28;;;;;;;15.28;39.29;100847.78;5044954;28;20385;-77
2023/04/11 08:21:25;;;;;;;6.13;3.13;;;;;;;15.49;39.01;100835.34;5045933;28;20536;-77
2023/04/11 08:23:51;;;;;;;10.47;4.10;;;;;;;15.34;39.26;100835.50;5046019;28;20384;-78
2023/04/11 08:26:17;;;;;;;3.97;2.67;;;;;;;15.76;37.01;100832.81;5053718;28;20756;-77
2023/04/11 08:28:43;;;;;;;7.03;2.88;;;;;;;15.61;36.60;100822.22;5052427;28;20410;-77
2023/04/11 08:31:11;;;;;;;4.18;2.90;;;;;;;15.64;38.12;100833.34;5047753;28;20401;-78
2023/04/11 08:33:38;;;;;;;4.82;3.45;;;;;;;15.85;37.87;100819.06;5049148;28;20419;-76
2023/04/11 08:36:04;;;;;;;5.97;3.67;;;;;;;15.86;38.10;100838.56;5052655;28;20400;-77
2023/04/11 08:38:30;;;;;;;5.35;3.63;;;;;;;15.66;38.33;100803.75;5051670;28;20390;-78
2023/04/11 08:40:56;;;;;;;7.20;3.40;;;;;;;15.79;37.96;100798.50;5052263;28;20726;-78
2023/04/11 08:43:22;;;;;;;6.77;3.70;;;;;;;15.89;38.12;100800.75;5045399;28;20390;-77
2023/04/11 08:45:48;;;;;;;6.57;3.03;;;;;;;15.77;38.12;100799.69;5034864;28;20506;-77
2023/04/11 08:48:13;;;;;;;5.07;3.50;;;;;;;16.00;37.74;100794.00;5034697;28;20405;-78
2023/04/11 08:50:41;;;;;;;5.80;3.20;;;;;;;15.93;37.72;100782.47;5070814;28;20390;-77
2023/04/11 08:53:07;;;;;;;7.35;3.30;;;;;;;15.74;38.26;100784.06;5056269;28;20477;-77
2023/04/11 08:55:33;;;;;;;4.43;2.92;;;;;;;15.66;38.44;100793.91;5053144;28;20391;-77
2023/04/11 08:57:59;;;;;;;4.50;3.27;;;;;;;15.65;37.38;100776.22;5052144;28;20373;-78
2023/04/11 09:00:27;;;;;;;6.57;3.20;;;;;;;15.63;37.18;100777.47;5052936;28;20706;-78
2023/04/11 09:02:55;;;;;;;7.05;3.20;;;;;;;15.36;37.95;100755.16;5052989;28;20526;-77
2023/04/11 09:05:33;;;;;;;3.88;2.42;;;;;;;15.74;36.84;100763.53;5052942;28;20389;-77
2023/04/11 09:08:00;;;;;;;6.55;3.45;;;;;;;16.01;37.17;100761.72;5052719;28;20465;-77
2023/04/11 09:10:26;;;;;;;4.63;3.33;;;;;;;15.88;36.82;100763.53;5052806;28;20932;-76
2023/04/11 09:12:53;;;;;;;5.85;3.72;;;;;;;16.27;36.43;100741.34;5053194;28;20415;-77
2023/04/11 09:15:21;;;;;;;4.32;3.20;;;;;;;16.36;36.32;100737.41;5052821;28;20400;-78
2023/04/11 09:17:48;;;;;;;6.90;3.45;;;;;;;16.48;35.65;100737.63;5037567;28;20451;-77
2023/04/11 09:20:24;;;;;;;5.40;3.30;;;;;;;16.33;34.48;100742.34;5035717;28;20392;-76
2023/04/11 09:22:53;;;;;;;5.53;3.40;;;;;;;16.58;34.26;100734.50;5043471;28;20388;-76
2023/04/11 09:25:20;;;;;;;3.42;2.70;;;;;;;16.79;32.83;100736.91;5041700;28;20390;-78
2023/04/11 09:27:46;;;;;;;5.78;3.40;;;;;;;16.71;32.55;100723.78;5048258;28;20560;-76
2023/04/11 09:30:25;;;;;;;2.67;2.20;;;;;;;16.61;30.51;100721.53;5047678;28;20867;-77
2023/04/11 09:32:52;;;;;;;3.50;1.90;;;;;;;16.57;31.96;100720.31;5037043;28;20536;-79
2023/04/11 09:35:22;;;;;;;2.35;2.00;;;;;;;16.38;31.79;100718.47;5043660;28;20467;-77
2023/04/11 09:37:55;;;;;;;3.70;2.90;;;;;;;16.66;31.41;100712.06;5043711;28;20467;-77
2023/04/11 09:40:23;;;;;;;7.25;2.88;;;;;;;17.05;29.77;100708.44;5055790;28;20465;-77
2023/04/11 09:42:57;;;;;;;3.72;2.60;;;;;;;17.13;28.96;100708.19;5052171;28;20384;-77
2023/04/11 09:45:24;;;;;;;6.65;2.38;;;;;;;16.68;29.25;100702.78;5041479;28;20456;-77
2023/04/11 09:47:51;;;;;;;3.63;2.78;;;;;;;16.79;29.01;100693.25;5051599;28;20416;-78
2023/04/11 09:50:18;;;;;;;4.82;2.60;;;;;;;17.19;29.39;100696.59;5045211;28;20393;-77
2023/04/11 09:52:45;;;;;;;6.20;2.85;;;;;;;16.85;30.54;100692.44;5045986;28;20819;-76
2023/04/11 09:55:22;;;;;;;5.07;2.90;;;;;;;17.14;29.93;100683.06;5041406;28;20483;-76
2023/04/11 09:57:49;;;;;;;3.72;3.38;;;;;;;17.16;29.72;100681.00;5045385;28;20745;-77
2023/04/11 10:00:20;;;;;;;6.10;5.50;;;;;;;17.27;29.41;100675.97;5037983;28;20389;-76
2023/04/11 10:02:51;;;;;;;5.63;5.20;;;;;;;17.32;29.39;100673.47;5037662;28;20383;-76
2023/04/11 10:05:18;;;;;;;9.45;8.70;;;;;;;17.58;29.19;100672.47;5043010;28;20878;-77
2023/04/11 10:07:54;;;;;;;27.27;25.17;;;;;;;17.76;29.04;100675.22;5042146;28;20412;-78
2023/04/11 10:10:21;;;;;;;62.50;44.53;;;;;;;17.61;29.41;100681.94;5043518;28;20390;-76
2023/04/11 10:12:48;;;;;;;28.50;26.08;;;;;;;17.42;28.59;100673.81;5040762;28;20395;-77
2023/04/11 10:15:14;;;;;;;21.48;19.80;;;;;;;17.50;28.83;100665.53;5046484;28;20473;-77
2023/04/11 10:17:40;;;;;;;19.10;17.77;;;;;;;17.28;28.15;100650.81;5031693;28;20452;-76
2023/04/11 10:20:37;;;;;;;24.42;22.13;;;;;;;17.74;27.54;100657.72;5036928;28;20383;-76
2023/04/11 10:23:03;;;;;;;37.70;33.60;;;;;;;17.93;27.72;100662.13;5041342;28;20396;-77
2023/04/11 10:25:29;;;;;;;45.80;35.20;;;;;;;17.93;27.38;100661.28;5036243;28;20400;-76
2023/04/11 10:28:03;;;;;;;39.22;34.88;;;;;;;17.95;27.64;100645.78;5050318;28;20396;-77
2023/04/11 10:30:43;;;;;;;37.40;33.58;;;;;;;17.71;27.17;100658.16;5039571;28;20381;-77
2023/04/11 10:33:09;;;;;;;36.60;33.08;;;;;;;17.48;26.79;100651.50;5042600;28;20448;-77
2023/04/11 10:35:54;;;;;;;28.27;25.73;;;;;;;17.60;26.01;100648.16;5032365;28;20386;-76
2023/04/11 10:38:47;;;;;;;30.30;27.63;;;;;;;17.68;25.12;100639.81;5043238;28;20385;-77
2023/04/11 10:41:25;;;;;;;63.05;44.60;;;;;;;17.79;25.22;100636.44;5049574;28;20380;-77
2023/04/11 10:43:51;;;;;;;50.13;41.60;;;;;;;17.80;26.66;100631.88;5050364;28;20517;-76
2023/04/11 10:46:22;;;;;;;37.83;34.05;;;;;;;17.58;26.53;100616.19;5043454;28;20388;-77
2023/04/11 10:49:03;;;;;;;39.53;35.38;;;;;;;17.77;26.88;100627.78;5047498;28;21012;-77
2023/04/11 10:51:31;;;;;;;33.00;29.95;;;;;;;17.70;26.38;100621.66;5039983;28;20396;-77
2023/04/11 10:53:58;;;;;;;39.88;35.20;;;;;;;17.84;26.79;100608.94;5044813;28;20410;-77
2023/04/11 10:56:45;;;;;;;53.13;41.03;;;;;;;18.06;26.40;100612.91;5041330;28;20396;-77
2023/04/11 10:59:34;;;;;;;58.80;43.30;;;;;;;17.83;26.83;100608.13;5050200;28;20852;-78
2023/04/11 11:02:00;;;;;;;44.83;38.17;;;;;;;18.07;27.20;100598.44;5010882;28;20407;-77
2023/04/11 11:04:34;;;;;;;56.55;42.97;;;;;;;18.18;27.35;100591.50;5050449;28;20387;-77
2023/04/11 11:07:00;;;;;;;125.63;55.97;;;;;;;18.26;27.39;100601.16;5036151;28;20398;-77
2023/04/11 11:09:29;;;;;;;125.27;53.90;;;;;;;17.90;27.97;100582.13;5034815;28;20406;-77
2023/04/11 11:12:12;;;;;;;94.93;52.47;;;;;;;18.01;27.44;100583.25;5039751;28;20503;-76
2023/04/11 11:14:40;;;;;;;64.47;45.20;;;;;;;17.68;28.19;100580.84;5039158;28;20920;-78
2023/04/11 11:17:07;;;;;;;51.83;41.33;;;;;;;17.69;28.31;100577.13;5035822;28;20851;-77
2023/04/11 11:19:34;;;;;;;66.13;46.00;;;;;;;18.00;27.73;100568.19;5036325;28;20798;-77